createdAt,value
2023-02-12T00:04:01.869Z,48.80
2023-02-12T00:08:04.159Z,45.88
2023-02-12T00:12:06.536Z,44.35
2023-02-12T00:16:11.187Z,44.03
2023-02-12T00:20:13.380Z,46.42
2023-02-12T00:24:15.416Z,46.22
2023-02-12T00:28:17.456Z,46.80
2023-02-12T00:32:19.633Z,48.22
2023-02-12T00:36:24.535Z,48.10
2023-02-12T00:40:26.549Z,51.85
2023-02-12T00:44:28.564Z,49.50
2023-02-12T00:48:31.680Z,53.78
2023-02-12T00:52:33.705Z,57.47
2023-02-12T00:56:35.719Z,51.60
2023-02-12T01:00:38.373Z,53.40
2023-02-12T01:04:40.446Z,52.70
2023-02-12T01:08:42.500Z,52.10
2023-02-12T01:12:44.903Z,54.33
2023-02-12T01:16:46.957Z,52.65
2023-02-12T01:20:48.934Z,53.55
2023-02-12T01:24:51.076Z,55.92
2023-02-12T01:29:01.304Z,60.00
2023-02-12T01:33:03.567Z,56.97
2023-02-12T01:37:05.568Z,61.47
2023-02-12T01:41:14.859Z,58.83
2023-02-12T01:45:16.828Z,58.90
2023-02-12T01:49:41.076Z,53.00
2023-02-12T01:53:50.908Z,56.92
2023-02-12T01:57:53.284Z,60.95
2023-02-12T02:01:55.367Z,207.63
2023-02-12T02:06:09.757Z,62.17
2023-02-12T02:10:12.982Z,57.35
2023-02-12T02:14:33.402Z,56.22
2023-02-12T02:19:17.899Z,56.92
2023-02-12T02:23:34.507Z,62.33
2023-02-12T02:27:49.252Z,57.40
2023-02-12T02:32:08.218Z,56.45
2023-02-12T02:36:27.811Z,56.47
2023-02-12T02:40:40.139Z,57.75
2023-02-12T02:44:59.315Z,57.00
2023-02-12T02:49:14.525Z,54.97
2023-02-12T02:53:27.490Z,56.70
2023-02-12T02:57:36.246Z,61.45
2023-02-12T03:01:50.110Z,53.78
2023-02-12T03:05:58.037Z,56.60
2023-02-12T03:10:12.120Z,56.40
2023-02-12T03:14:20.440Z,65.90
2023-02-12T03:18:27.569Z,56.80
2023-02-12T03:22:36.221Z,57.38
2023-02-12T03:26:47.523Z,58.42
2023-02-12T03:31:09.187Z,61.00
2023-02-12T03:35:20.808Z,59.55
2023-02-12T03:39:49.303Z,54.28
2023-02-12T03:43:56.946Z,54.92
2023-02-12T03:48:20.218Z,49.17
2023-02-12T03:52:22.697Z,52.40
2023-02-12T03:56:52.081Z,51.72
2023-02-12T04:00:54.743Z,54.53
2023-02-12T04:04:56.777Z,50.13
2023-02-12T04:09:03.882Z,55.03
2023-02-12T04:13:21.315Z,53.45
2023-02-12T04:18:04.842Z,47.67
2023-02-12T04:22:36.739Z,46.60
2023-02-12T04:26:55.576Z,46.95
2023-02-12T04:31:04.068Z,47.53
2023-02-12T04:35:26.808Z,47.35
2023-02-12T04:39:32.044Z,50.55
2023-02-12T04:43:36.950Z,52.70
2023-02-12T04:47:39.306Z,53.25
2023-02-12T04:51:41.374Z,47.28
2023-02-12T04:55:43.472Z,51.83
2023-02-12T04:59:45.543Z,50.22
2023-02-12T05:03:47.595Z,48.00
2023-02-12T05:07:49.949Z,48.13
2023-02-12T05:11:51.988Z,49.03
2023-02-12T05:15:54.209Z,51.50
2023-02-12T05:19:56.454Z,49.58
2023-02-12T05:23:58.424Z,52.92
2023-02-12T05:28:00.452Z,52.63
2023-02-12T05:32:03.033Z,48.53
2023-02-12T05:36:12.045Z,49.60
2023-02-12T05:40:14.618Z,49.58
2023-02-12T05:44:16.710Z,48.60
2023-02-12T05:48:18.736Z,46.50
2023-02-12T05:52:20.737Z,52.55
2023-02-12T05:56:25.583Z,44.83
2023-02-12T06:00:27.641Z,45.63
2023-02-12T06:04:29.666Z,43.75
2023-02-12T06:08:31.871Z,41.67
2023-02-12T06:12:33.874Z,45.85
2023-02-12T06:16:36.151Z,43.00
2023-02-12T06:20:41.346Z,46.35
2023-02-12T06:24:43.316Z,46.63
2023-02-12T06:28:45.420Z,50.53
2023-02-12T06:32:50.200Z,48.47
2023-02-12T06:36:52.224Z,42.88
2023-02-12T06:40:54.221Z,45.05
2023-02-12T06:44:56.213Z,46.58
2023-02-12T06:49:00.270Z,45.90
2023-02-12T06:53:02.366Z,51.67
2023-02-12T06:57:04.386Z,44.40
2023-02-12T07:01:13.681Z,46.30
2023-02-12T07:05:15.933Z,43.45
2023-02-12T07:09:17.980Z,45.00
2023-02-12T07:13:19.982Z,45.47
2023-02-12T07:17:21.968Z,43.88
2023-02-12T07:21:23.982Z,41.28
2023-02-12T07:25:25.958Z,44.03
2023-02-12T07:29:27.935Z,43.85
2023-02-12T07:33:29.929Z,44.03
2023-02-12T07:37:31.966Z,45.45
2023-02-12T07:41:35.961Z,46.40
2023-02-12T07:45:37.994Z,47.28
2023-02-12T07:49:40.010Z,48.38
2023-02-12T07:53:42.361Z,47.17
2023-02-12T07:57:44.395Z,47.13
2023-02-12T08:01:48.944Z,46.08
2023-02-12T08:05:51.022Z,40.85
2023-02-12T08:09:53.431Z,42.75
2023-02-12T08:13:58.131Z,39.75
2023-02-12T08:18:01.517Z,39.22
2023-02-12T08:22:03.571Z,41.00
2023-02-12T08:26:32.894Z,42.65
2023-02-12T08:30:34.893Z,36.35
2023-02-12T08:34:36.901Z,40.65
2023-02-12T08:38:39.682Z,39.28
2023-02-12T08:42:41.919Z,38.88
2023-02-12T08:46:47.130Z,40.03
2023-02-12T08:50:49.170Z,38.20
2023-02-12T08:54:51.239Z,36.42
2023-02-12T08:58:53.208Z,36.95
2023-02-12T09:02:55.191Z,35.15
2023-02-12T09:06:57.577Z,39.47
2023-02-12T09:10:59.574Z,36.17
2023-02-12T09:15:01.588Z,34.05
2023-02-12T09:19:04.541Z,33.63
2023-02-12T09:23:07.905Z,29.10
2023-02-12T09:27:10.025Z,31.75
2023-02-12T09:31:15.420Z,30.73
2023-02-12T09:35:18.497Z,33.00
2023-02-12T09:39:20.480Z,29.48
2023-02-12T09:43:40.140Z,32.60
2023-02-12T09:48:02.962Z,31.52
2023-02-12T09:52:10.639Z,31.15
2023-02-12T09:56:14.884Z,30.75
2023-02-12T10:00:31.075Z,28.85
2023-02-12T10:04:33.240Z,25.92
2023-02-12T10:09:00.479Z,26.13
2023-02-12T10:13:10.753Z,19.27
2023-02-12T10:17:42.242Z,21.67
2023-02-12T10:21:53.425Z,19.85
2023-02-12T10:26:02.344Z,21.35
2023-02-12T10:30:16.769Z,20.70
2023-02-12T10:34:22.473Z,20.17
2023-02-12T10:38:30.246Z,19.55
2023-02-12T10:42:41.946Z,18.13
2023-02-12T10:46:44.285Z,21.40
2023-02-12T10:50:58.868Z,22.67
2023-02-12T10:55:01.351Z,22.50
2023-02-12T10:59:03.375Z,21.83
2023-02-12T11:03:08.401Z,20.13
2023-02-12T11:07:10.473Z,22.83
2023-02-12T11:11:33.087Z,20.77
2023-02-12T11:15:46.000Z,18.25
2023-02-12T11:20:02.901Z,16.92
2023-02-12T11:24:30.150Z,15.37
2023-02-12T11:28:35.096Z,26.25
2023-02-12T11:32:37.490Z,23.10
2023-02-12T11:36:53.678Z,18.77
2023-02-12T11:41:00.004Z,18.50
2023-02-12T11:45:02.747Z,18.23
2023-02-12T11:49:06.138Z,18.15
2023-02-12T11:53:09.803Z,16.00
2023-02-12T11:57:50.936Z,17.08
2023-02-12T12:01:56.005Z,17.65
2023-02-12T12:06:08.141Z,17.40
2023-02-12T12:10:39.234Z,16.70
2023-02-12T12:15:23.706Z,15.80
2023-02-12T12:19:53.213Z,16.60
2023-02-12T12:24:00.750Z,15.57
2023-02-12T12:28:15.141Z,20.88
2023-02-12T12:32:21.217Z,14.95
2023-02-12T12:36:58.350Z,14.48
2023-02-12T12:41:26.576Z,15.57
2023-02-12T12:45:40.616Z,11.93
2023-02-12T12:49:54.226Z,12.32
2023-02-12T12:53:59.172Z,11.73
2023-02-12T12:58:15.863Z,12.80
2023-02-12T13:02:42.999Z,13.60
2023-02-12T13:07:03.300Z,16.03
2023-02-12T13:11:08.127Z,19.08
2023-02-12T13:15:28.949Z,9.65
2023-02-12T13:19:40.321Z,10.55
2023-02-12T13:24:06.655Z,8.57
2023-02-12T13:28:22.593Z,7.97
2023-02-12T13:32:37.588Z,12.25
2023-02-12T13:36:41.722Z,15.18
2023-02-12T13:40:43.919Z,14.55
2023-02-12T13:44:56.449Z,15.63
2023-02-12T13:49:29.680Z,18.05
2023-02-12T13:53:45.899Z,18.52
2023-02-12T13:58:26.561Z,22.88
2023-02-12T14:02:43.106Z,21.23
2023-02-12T14:06:58.727Z,18.52
2023-02-12T14:11:17.839Z,22.40
2023-02-12T14:15:32.415Z,23.42
2023-02-12T14:19:50.762Z,20.45
2023-02-12T14:23:53.925Z,19.83
2023-02-12T14:28:12.822Z,21.13
2023-02-12T14:33:09.703Z,20.77
2023-02-12T14:37:32.057Z,17.40
2023-02-12T14:41:43.132Z,15.10
2023-02-12T14:45:45.210Z,15.10
2023-02-12T14:49:52.035Z,15.25
2023-02-12T14:53:56.081Z,15.90
2023-02-12T14:58:01.867Z,14.13
2023-02-12T15:02:06.267Z,15.15
2023-02-12T15:06:21.970Z,13.35
2023-02-12T15:10:37.184Z,12.23
2023-02-12T15:14:51.433Z,11.82
2023-02-12T15:19:31.238Z,12.57
2023-02-12T15:23:41.663Z,13.63
2023-02-12T15:27:48.705Z,9.57
2023-02-12T15:32:02.839Z,9.30
2023-02-12T15:36:07.497Z,15.88
2023-02-12T15:40:15.498Z,10.15
2023-02-12T15:44:28.398Z,9.35
2023-02-12T15:48:33.583Z,6.95
2023-02-12T15:52:39.403Z,7.38
2023-02-12T15:56:41.778Z,13.30
2023-02-12T16:00:48.875Z,11.73
2023-02-12T16:04:51.067Z,11.43
2023-02-12T16:09:01.474Z,11.93
2023-02-12T16:13:04.164Z,14.35
2023-02-12T16:17:21.750Z,17.50
2023-02-12T16:25:27.753Z,18.05
2023-02-12T16:29:32.258Z,16.73
2023-02-12T16:33:48.689Z,16.92
2023-02-12T16:37:52.870Z,20.38
2023-02-12T16:41:56.729Z,19.65
2023-02-12T16:46:05.452Z,18.23
2023-02-12T16:50:15.242Z,18.73
2023-02-12T16:54:31.304Z,18.65
2023-02-12T16:58:33.530Z,17.30
2023-02-12T17:02:38.511Z,20.33
2023-02-12T17:06:40.504Z,20.27
2023-02-12T17:10:44.630Z,18.98
2023-02-12T17:14:47.263Z,21.25
2023-02-12T17:18:49.306Z,19.83
2023-02-12T17:22:54.053Z,19.35
2023-02-12T17:26:56.384Z,22.13
2023-02-12T17:30:58.898Z,203.95
2023-02-12T17:35:01.068Z,44.88
2023-02-12T17:39:05.215Z,19.17
2023-02-12T17:43:07.593Z,26.25
2023-02-12T17:47:09.758Z,16.23
2023-02-12T17:51:12.319Z,20.15
2023-02-12T17:55:15.085Z,16.30
2023-02-12T17:59:17.402Z,15.10
2023-02-12T18:03:19.425Z,14.23
2023-02-12T18:07:21.431Z,11.57
2023-02-12T18:11:23.989Z,11.90
2023-02-12T18:15:26.007Z,18.92
2023-02-12T18:19:28.847Z,16.35
2023-02-12T18:23:30.992Z,17.52
2023-02-12T18:27:33.026Z,13.55
2023-02-12T18:31:35.383Z,11.25
2023-02-12T18:35:37.590Z,9.48
2023-02-12T18:39:40.029Z,11.45
2023-02-12T18:43:43.995Z,11.20
2023-02-12T18:47:46.165Z,10.10
2023-02-12T18:51:48.161Z,10.75
2023-02-12T18:55:50.628Z,10.30
2023-02-12T18:59:52.689Z,13.68
2023-02-12T19:03:57.390Z,11.52
2023-02-12T19:08:00.097Z,9.93
2023-02-12T19:12:02.415Z,7.93
2023-02-12T19:16:15.340Z,8.77
2023-02-12T19:20:17.640Z,8.98
2023-02-12T19:24:19.710Z,9.75
2023-02-12T19:28:21.748Z,9.88
2023-02-12T19:32:23.774Z,9.90
2023-02-12T19:36:27.528Z,12.65
2023-02-12T19:40:29.526Z,13.85
2023-02-12T19:44:31.652Z,10.98
2023-02-12T19:48:34.073Z,18.08
2023-02-12T19:52:36.924Z,19.30
2023-02-12T19:56:39.332Z,21.15
2023-02-12T20:00:41.355Z,18.02
2023-02-12T20:04:43.579Z,13.27
2023-02-12T20:08:45.803Z,12.68
2023-02-12T20:12:47.815Z,13.57
2023-02-12T20:16:53.330Z,14.57
2023-02-12T20:20:55.672Z,13.13
2023-02-12T20:24:58.051Z,14.95
2023-02-12T20:29:03.299Z,13.43
2023-02-12T20:33:06.833Z,12.43
2023-02-12T20:37:08.881Z,12.30
2023-02-12T20:41:11.427Z,13.18
2023-02-12T20:45:13.406Z,17.55
2023-02-12T20:49:17.412Z,18.77
2023-02-12T20:53:19.401Z,19.63
2023-02-12T20:57:21.513Z,19.52
2023-02-12T21:01:26.544Z,18.38
2023-02-12T21:05:28.899Z,21.20
2023-02-12T21:09:31.024Z,17.85
2023-02-12T21:13:33.283Z,23.15
2023-02-12T21:17:35.792Z,20.52
2023-02-12T21:21:39.528Z,30.15
2023-02-12T21:25:41.532Z,36.25
2023-02-12T21:29:43.544Z,19.85
2023-02-12T21:33:47.940Z,20.08
2023-02-12T21:37:49.950Z,23.85
2023-02-12T21:41:54.521Z,19.77
2023-02-12T21:45:56.618Z,27.80
2023-02-12T21:49:58.754Z,42.63
2023-02-12T21:54:03.386Z,48.80
2023-02-12T21:58:05.399Z,25.80
2023-02-12T22:02:09.610Z,21.83
2023-02-12T22:06:13.626Z,16.08
2023-02-12T22:10:15.897Z,35.72
2023-02-12T22:14:18.406Z,29.23
2023-02-12T22:18:20.414Z,26.15
2023-02-12T22:22:23.740Z,37.55
2023-02-12T22:26:27.848Z,42.38
2023-02-12T22:30:29.896Z,21.42
2023-02-12T22:34:32.028Z,28.77
2023-02-12T22:38:35.818Z,23.92
2023-02-12T22:42:37.932Z,15.18
2023-02-12T22:46:41.694Z,12.75
2023-02-12T22:50:43.722Z,12.98
2023-02-12T22:54:45.757Z,15.05
2023-02-12T22:58:47.997Z,13.82
2023-02-12T23:02:50.006Z,13.48
2023-02-12T23:06:52.024Z,12.93
2023-02-12T23:10:54.051Z,12.55
2023-02-12T23:14:56.083Z,14.23
2023-02-12T23:19:00.381Z,12.35
2023-02-12T23:23:02.442Z,12.32
2023-02-12T23:27:04.483Z,10.82
2023-02-12T23:31:06.746Z,11.70
2023-02-12T23:35:08.840Z,11.60
2023-02-12T23:39:12.420Z,11.82
2023-02-12T23:43:14.883Z,13.43
2023-02-12T23:47:16.906Z,12.48
2023-02-12T23:51:18.920Z,11.18
2023-02-12T23:55:21.551Z,11.93
2023-02-12T23:59:25.427Z,13.32
